Time;durP1;ratioP1;P1;durP2;ratioP2;P2;SDS_P1;SDS_P2;PMS_P1;PMS_P2;Temp;Humidity;BMP_temperature;BMP_pressure;BME280_temperature;BME280_humidity;BME280_pressure;Samples;Min_cycle;Max_cycle;Signal;HPM_P1;HPM_P2
2023/02/18 00:00:00;;;;;;;12.68;2.60;;;;;;;6.90;74.36;100956.84;5045219;28;20189;-70
2023/02/18 00:02:35;;;;;;;12.82;3.38;;;;;;;6.86;75.11;100951.00;5033683;28;20235;-68
2023/02/18 00:05:05;;;;;;;16.17;3.05;;;;;;;6.86;75.28;100963.59;5041859;28;20190;-68
2023/02/18 00:07:43;;;;;;;7.38;3.28;;;;;;;6.83;75.22;100953.19;5034351;28;20232;-68
2023/02/18 00:10:16;;;;;;;7.40;1.95;;;;;;;6.81;75.89;100956.06;5033966;28;20197;-68
2023/02/18 00:12:46;;;;;;;9.00;3.28;;;;;;;6.83;75.72;100953.19;5043329;28;20676;-69
2023/02/18 00:15:17;;;;;;;6.50;2.30;;;;;;;6.78;76.04;100955.56;5004033;28;20200;-69
2023/02/18 00:17:49;;;;;;;13.77;2.72;;;;;;;6.75;76.21;100947.84;5014497;28;20210;-70
2023/02/18 00:20:19;;;;;;;11.55;2.70;;;;;;;6.68;76.88;100960.34;5017666;28;20201;-68
2023/02/18 00:22:51;;;;;;;13.75;2.42;;;;;;;6.65;76.99;100956.13;5005374;28;20208;-69
2023/02/18 00:25:22;;;;;;;13.05;3.58;;;;;;;6.60;77.35;100963.03;5016453;28;20293;-68
2023/02/18 00:27:52;;;;;;;9.10;3.22;;;;;;;6.55;77.66;100967.09;5015107;28;20244;-66
2023/02/18 00:30:22;;;;;;;16.35;3.88;;;;;;;6.56;77.49;100951.81;5017388;28;20194;-69
2023/02/18 00:32:58;;;;;;;7.80;2.55;;;;;;;6.48;77.93;100955.38;5041634;28;20615;-69
2023/02/18 00:35:28;;;;;;;8.95;3.03;;;;;;;6.46;78.25;100965.47;5014770;28;20190;-68
2023/02/18 00:37:59;;;;;;;10.02;2.78;;;;;;;6.41;78.28;100959.78;5015867;28;20288;-69
2023/02/18 00:40:29;;;;;;;16.15;2.92;;;;;;;6.36;78.95;100962.13;5036696;28;20625;-67
2023/02/18 00:42:59;;;;;;;8.52;1.90;;;;;;;6.31;79.28;100967.19;5025560;28;20206;-69
2023/02/18 00:45:30;;;;;;;11.02;2.35;;;;;;;6.29;79.19;100974.59;5011603;28;20247;-69
2023/02/18 00:48:00;;;;;;;15.05;3.17;;;;;;;6.23;79.62;100975.28;5043702;28;20216;-69
2023/02/18 00:50:29;;;;;;;12.13;2.63;;;;;;;6.20;79.62;100972.94;5017229;28;20193;-69
2023/02/18 00:53:01;;;;;;;17.65;4.07;;;;;;;6.23;79.57;100982.50;5023388;28;20656;-69
2023/02/18 00:55:32;;;;;;;9.85;2.60;;;;;;;6.23;79.70;100994.09;5014450;28;20202;-70
2023/02/18 00:58:07;;;;;;;27.27;3.67;;;;;;;6.21;79.64;100985.34;5044066;28;20227;-69
2023/02/18 01:00:37;;;;;;;12.25;1.50;;;;;;;6.16;79.80;100992.25;5049203;28;20215;-69
2023/02/18 01:03:08;;;;;;;13.02;1.83;;;;;;;6.15;80.04;100991.41;5006638;28;20243;-70
2023/02/18 01:05:39;;;;;;;8.25;2.88;;;;;;;6.13;80.32;100988.06;5014827;28;20285;-71
2023/02/18 01:08:11;;;;;;;9.50;1.92;;;;;;;6.16;80.10;100995.78;5009494;28;20224;-68
2023/02/18 01:10:43;;;;;;;8.98;1.80;;;;;;;6.13;80.33;100982.69;5007290;28;20225;-70
2023/02/18 01:13:15;;;;;;;17.23;2.42;;;;;;;6.05;80.59;100975.47;5036256;28;20182;-68
2023/02/18 01:15:46;;;;;;;9.60;2.95;;;;;;;6.01;80.81;100973.31;5010989;28;20206;-68
2023/02/18 01:18:17;;;;;;;17.38;3.30;;;;;;;6.02;81.00;100980.34;5017451;28;20197;-70
2023/02/18 01:20:48;;;;;;;12.50;2.95;;;;;;;6.02;80.70;100981.19;5010497;28;20190;-69
2023/02/18 01:23:20;;;;;;;12.18;2.60;;;;;;;6.02;80.96;100977.66;5016881;28;20681;-70
2023/02/18 01:25:51;;;;;;;11.50;3.45;;;;;;;5.97;80.95;100990.78;5013165;28;20253;-71
2023/02/18 01:28:24;;;;;;;9.82;3.20;;;;;;;5.96;81.38;100972.97;5022284;28;20197;-69
2023/02/18 01:30:55;;;;;;;5.30;2.42;;;;;;;5.98;81.01;100981.72;5039876;28;20185;-69
2023/02/18 01:33:26;;;;;;;16.45;2.58;;;;;;;5.96;81.19;100987.25;5017327;28;20189;-69
2023/02/18 01:35:55;;;;;;;8.27;3.13;;;;;;;6.00;81.09;100987.75;5041474;28;20190;-69
2023/02/18 01:38:27;;;;;;;5.97;2.08;;;;;;;5.97;81.04;100985.41;5037163;28;20235;-70
2023/02/18 01:40:57;;;;;;;13.43;2.63;;;;;;;6.01;80.98;100981.38;5046355;28;20211;-68
2023/02/18 01:43:26;;;;;;;13.15;2.95;;;;;;;5.99;80.87;100978.03;5021101;28;20199;-69
2023/02/18 01:46:06;;;;;;;18.58;4.45;;;;;;;6.02;80.66;100985.72;5015668;28;20209;-70
2023/02/18 01:48:39;;;;;;;10.38;2.70;;;;;;;6.04;80.38;100989.94;5007013;28;20197;-69
2023/02/18 01:51:14;;;;;;;17.73;2.60;;;;;;;6.05;80.42;100988.09;5014182;28;20618;-69
2023/02/18 01:53:51;;;;;;;8.23;2.10;;;;;;;6.02;80.83;100985.72;5022497;28;20224;-69
2023/02/18 01:56:26;;;;;;;12.73;2.58;;;;;;;6.03;80.82;100987.41;5014826;28;20589;-67
2023/02/18 01:59:00;;;;;;;9.85;2.22;;;;;;;6.02;80.46;100969.63;5016922;28;20219;-69
2023/02/18 02:01:32;;;;;;;12.55;3.10;;;;;;;6.03;80.30;100984.72;5028166;28;20193;-68
2023/02/18 02:04:03;;;;;;;11.93;2.63;;;;;;;5.99;80.59;100972.66;5012055;28;20648;-69
2023/02/18 02:06:35;;;;;;;10.65;2.70;;;;;;;5.97;81.15;100966.59;5049490;28;20217;-69
2023/02/18 02:09:11;;;;;;;7.65;2.35;;;;;;;5.93;80.92;100976.00;5023533;28;20338;-68
2023/02/18 02:12:05;;;;;;;10.32;3.10;;;;;;;5.94;80.98;100989.28;5035947;28;20213;-70
2023/02/18 02:14:55;;;;;;;8.38;2.15;;;;;;;6.02;80.67;100985.72;5027922;28;20703;-68
2023/02/18 02:17:33;;;;;;;18.70;2.33;;;;;;;6.02;80.46;100994.63;5009593;28;20294;-68
2023/02/18 02:20:26;;;;;;;9.98;3.28;;;;;;;6.02;80.48;100997.31;5011032;28;20691;-69
2023/02/18 02:23:29;;;;;;;7.85;2.25;;;;;;;5.91;81.15;100994.97;5033880;28;20194;-70
2023/02/18 02:26:46;;;;;;;11.15;3.13;;;;;;;5.94;81.02;100994.66;4998644;28;20205;-67
2023/02/18 02:29:56;;;;;;;6.28;3.22;;;;;;;5.85;81.30;100984.91;4927662;28;20204;-71
2023/02/18 02:33:11;;;;;;;10.88;2.58;;;;;;;5.86;81.63;100991.94;5018036;28;20245;-71
2023/02/18 02:36:14;;;;;;;12.65;3.40;;;;;;;5.91;81.18;100986.06;4950475;28;20231;-67
2023/02/18 02:38:54;;;;;;;9.95;2.05;;;;;;;5.98;80.47;100997.81;5024134;28;20197;-68
2023/02/18 02:41:38;;;;;;;8.13;1.73;;;;;;;6.01;80.37;100997.47;5017128;28;20201;-68
2023/02/18 02:44:20;;;;;;;7.50;1.98;;;;;;;5.93;80.76;100998.34;5020128;28;20199;-69
2023/02/18 02:46:59;;;;;;;9.02;2.38;;;;;;;5.91;80.66;101000.34;5039027;28;20229;-69
2023/02/18 02:49:39;;;;;;;9.65;2.15;;;;;;;5.85;80.85;100984.06;5039583;28;20185;-70
2023/02/18 02:52:18;;;;;;;10.30;2.40;;;;;;;5.81;80.96;100994.28;5034879;28;20292;-70
2023/02/18 02:54:48;;;;;;;9.45;2.08;;;;;;;5.83;80.98;100997.66;5017207;28;20220;-69
2023/02/18 02:57:44;;;;;;;17.02;3.22;;;;;;;5.79;80.98;100996.31;5035780;28;20204;-69
2023/02/18 03:00:22;;;;;;;11.68;1.70;;;;;;;5.79;81.46;101006.22;5017710;28;20197;-67
2023/02/18 03:03:32;;;;;;;7.93;2.28;;;;;;;5.83;80.84;101010.22;5021839;28;20193;-68
2023/02/18 03:06:26;;;;;;;13.70;1.80;;;;;;;5.83;80.98;101004.84;4993894;28;20235;-69
2023/02/18 03:09:09;;;;;;;8.35;2.30;;;;;;;5.78;80.69;100997.31;5025179;28;20204;-70
2023/02/18 03:11:47;;;;;;;19.52;3.08;;;;;;;5.76;81.04;101006.56;5019024;28;20207;-69
2023/02/18 03:14:27;;;;;;;14.15;2.40;;;;;;;5.72;81.19;101005.19;5013439;28;20204;-69
2023/02/18 03:17:03;;;;;;;10.25;2.30;;;;;;;5.63;81.61;100999.00;5008702;28;20218;-70
2023/02/18 03:19:38;;;;;;;12.40;2.03;;;;;;;5.68;80.83;100994.78;5017208;28;20267;-69
2023/02/18 03:22:14;;;;;;;6.72;1.85;;;;;;;5.67;80.87;100987.75;5016540;28;20197;-68
2023/02/18 03:24:49;;;;;;;7.43;2.15;;;;;;;5.67;81.02;101003.84;5027761;28;20283;-70
2023/02/18 03:27:22;;;;;;;5.30;2.50;;;;;;;5.67;80.60;100998.47;5033328;28;20216;-69
2023/02/18 03:29:57;;;;;;;17.20;2.25;;;;;;;5.73;80.21;100996.13;5024232;28;20220;-65
2023/02/18 03:32:29;;;;;;;10.70;2.22;;;;;;;5.72;79.93;100999.81;5023162;28;20199;-68
2023/02/18 03:35:03;;;;;;;9.00;1.90;;;;;;;5.80;79.83;100994.47;5027323;28;20201;-68
2023/02/18 03:37:36;;;;;;;10.32;1.92;;;;;;;5.84;79.55;100974.31;5014559;28;20384;-70
2023/02/18 03:40:10;;;;;;;6.35;2.05;;;;;;;5.89;79.11;100985.41;5009085;28;20201;-67
2023/02/18 03:42:40;;;;;;;5.50;1.73;;;;;;;5.91;78.78;100972.63;5011039;28;20296;-69
2023/02/18 03:45:10;;;;;;;9.02;2.65;;;;;;;5.91;78.83;100983.38;5022420;28;20284;-69
2023/02/18 03:47:43;;;;;;;4.53;2.88;;;;;;;5.89;78.36;100967.47;5008396;28;20599;-68
2023/02/18 03:50:14;;;;;;;8.43;1.52;;;;;;;5.91;78.24;100978.84;5010429;28;20193;-69
2023/02/18 03:52:44;;;;;;;9.10;1.45;;;;;;;5.91;78.24;100983.38;5022395;28;20190;-69
2023/02/18 03:55:15;;;;;;;10.00;1.95;;;;;;;5.82;78.72;100979.84;5000756;28;20316;-70
2023/02/18 03:57:45;;;;;;;5.45;1.88;;;;;;;5.84;78.28;100982.38;5012259;28;20217;-69
2023/02/18 04:00:16;;;;;;;6.97;1.40;;;;;;;5.81;78.27;100982.72;5019119;28;20671;-67
2023/02/18 04:02:45;;;;;;;7.22;1.90;;;;;;;5.83;78.13;100984.22;5012283;28;20205;-67
2023/02/18 04:05:15;;;;;;;5.90;1.90;;;;;;;5.87;77.52;100993.63;5008983;28;20205;-69
2023/02/18 04:07:45;;;;;;;10.43;2.00;;;;;;;5.88;77.70;100999.84;5015035;28;20419;-69
2023/02/18 04:10:17;;;;;;;11.98;2.83;;;;;;;5.85;77.63;100989.44;5032944;28;20186;-67
2023/02/18 04:12:47;;;;;;;5.07;3.38;;;;;;;5.87;77.13;100982.06;5031810;28;20197;-69
2023/02/18 04:15:20;;;;;;;7.90;2.03;;;;;;;5.90;77.19;100992.47;5035672;28;20586;-67
2023/02/18 04:17:50;;;;;;;20.88;2.65;;;;;;;5.80;77.85;100989.94;5006459;28;20649;-71
2023/02/18 04:20:21;;;;;;;6.35;1.60;;;;;;;5.74;77.91;101000.50;5016501;28;20191;-69
2023/02/18 04:22:51;;;;;;;8.10;1.75;;;;;;;5.77;77.43;100992.94;5029874;28;20201;-71
2023/02/18 04:25:23;;;;;;;19.05;2.50;;;;;;;5.77;77.77;101008.22;5016385;28;20185;-70
2023/02/18 04:27:53;;;;;;;17.52;4.22;;;;;;;5.72;77.65;101005.19;5010691;28;20549;-69
2023/02/18 04:30:24;;;;;;;10.73;1.90;;;;;;;5.74;77.79;101013.94;5031521;28;20193;-70
2023/02/18 04:32:54;;;;;;;5.97;1.55;;;;;;;5.65;78.14;101013.09;5026942;28;20700;-70
2023/02/18 04:35:24;;;;;;;8.50;1.98;;;;;;;5.66;78.13;101020.97;5025927;28;20213;-68
2023/02/18 04:37:54;;;;;;;5.43;1.45;;;;;;;5.60;78.57;101013.59;5019575;28;20227;-70
2023/02/18 04:40:29;;;;;;;9.25;2.33;;;;;;;5.61;78.38;101019.81;5011923;28;20193;-70
2023/02/18 04:42:59;;;;;;;6.55;2.30;;;;;;;5.60;78.38;101013.59;5017211;28;20291;-67
2023/02/18 04:45:30;;;;;;;9.82;1.75;;;;;;;5.60;78.54;101023.50;5012182;28;20190;-68
2023/02/18 04:48:00;;;;;;;7.72;1.85;;;;;;;5.58;78.51;101020.13;5014960;28;20216;-70
2023/02/18 04:50:30;;;;;;;5.93;1.35;;;;;;;5.45;79.15;101020.63;5025163;28;20197;-69
2023/02/18 04:52:59;;;;;;;9.85;2.00;;;;;;;5.47;79.01;101023.97;5034764;28;20281;-69
2023/02/18 04:55:30;;;;;;;10.93;1.70;;;;;;;5.42;79.24;101020.13;5011982;28;20576;-69
2023/02/18 04:58:00;;;;;;;13.00;3.10;;;;;;;5.42;79.23;101026.31;5041626;28;20221;-69
2023/02/18 05:00:30;;;;;;;6.60;2.53;;;;;;;5.37;79.53;101022.47;5018681;28;20356;-70
2023/02/18 05:03:00;;;;;;;4.97;1.70;;;;;;;5.48;79.34;101033.69;5038911;28;20191;-69
2023/02/18 05:05:30;;;;;;;7.20;1.40;;;;;;;5.46;79.12;101033.03;5024833;28;20196;-69
2023/02/18 05:07:59;;;;;;;5.35;1.80;;;;;;;5.52;78.49;101032.34;5040248;28;20559;-70
2023/02/18 05:10:31;;;;;;;9.20;2.88;;;;;;;5.51;78.48;101029.88;5023206;28;20257;-70
2023/02/18 05:13:01;;;;;;;7.53;1.70;;;;;;;5.50;78.75;101012.91;5027043;28;20209;-68
2023/02/18 05:15:30;;;;;;;7.05;2.03;;;;;;;5.56;78.22;101017.63;5040419;28;20216;-71
2023/02/18 05:18:01;;;;;;;8.10;1.45;;;;;;;5.61;77.78;101017.97;5016977;28;20237;-67
2023/02/18 05:20:31;;;;;;;8.25;2.00;;;;;;;5.62;77.87;101019.63;5013313;28;20199;-70
2023/02/18 05:23:00;;;;;;;4.00;1.65;;;;;;;5.64;77.87;101020.31;5013330;28;20194;-70
2023/02/18 05:25:32;;;;;;;7.28;1.58;;;;;;;5.76;77.50;101014.63;5018890;28;20220;-70
2023/02/18 05:28:01;;;;;;;4.53;1.70;;;;;;;5.75;77.49;101010.25;5036705;28;20217;-68
2023/02/18 05:30:31;;;;;;;4.65;1.65;;;;;;;5.82;76.92;101012.06;5041978;28;20215;-68
2023/02/18 05:33:02;;;;;;;9.13;2.15;;;;;;;5.88;76.33;101003.38;5039598;28;20183;-69
2023/02/18 05:35:32;;;;;;;9.98;2.00;;;;;;;5.96;75.70;100998.00;5021602;28;20220;-69
2023/02/18 05:38:03;;;;;;;8.27;2.05;;;;;;;6.06;75.65;101020.16;5011805;28;20327;-69
2023/02/18 05:40:35;;;;;;;6.45;1.73;;;;;;;6.09;75.79;101009.06;5018304;28;20204;-69
2023/02/18 05:43:07;;;;;;;7.82;1.35;;;;;;;6.16;74.72;101003.84;5024608;28;20259;-68
2023/02/18 05:45:37;;;;;;;7.13;1.73;;;;;;;6.16;74.69;100998.47;5029780;28;20198;-69
2023/02/18 05:48:07;;;;;;;7.35;1.58;;;;;;;6.18;74.35;100990.25;5038765;28;20218;-70
2023/02/18 05:50:37;;;;;;;5.13;2.10;;;;;;;6.31;74.25;101001.28;5042442;28;20204;-70
2023/02/18 05:53:09;;;;;;;6.00;1.30;;;;;;;6.34;73.51;100999.09;5029202;28;20205;-71
2023/02/18 05:55:40;;;;;;;2.05;1.35;;;;;;;6.31;73.89;101004.81;5014061;28;20205;-67
2023/02/18 05:58:15;;;;;;;9.00;2.03;;;;;;;6.36;73.45;101001.63;5018310;28;20652;-69
2023/02/18 06:00:48;;;;;;;5.75;1.70;;;;;;;6.36;73.37;101007.00;5024899;28;20211;-68
2023/02/18 06:03:19;;;;;;;2.65;1.20;;;;;;;6.44;72.73;101010.47;5034426;28;20181;-69
2023/02/18 06:05:51;;;;;;;3.00;1.27;;;;;;;6.43;72.80;101016.91;5011599;28;20197;-69
2023/02/18 06:08:23;;;;;;;15.40;2.38;;;;;;;6.48;72.48;101014.53;5017662;28;20562;-66
2023/02/18 06:10:54;;;;;;;9.30;2.00;;;;;;;6.46;72.28;101011.16;5016435;28;20617;-70
2023/02/18 06:13:24;;;;;;;2.80;1.48;;;;;;;6.48;72.55;101003.78;5047090;28;20570;-70
2023/02/18 06:15:55;;;;;;;2.88;1.65;;;;;;;6.52;72.14;101005.09;5014471;28;20190;-69
2023/02/18 06:18:25;;;;;;;4.35;1.23;;;;;;;6.56;72.08;101010.97;5037767;28;20220;-69
2023/02/18 06:20:55;;;;;;;8.90;1.80;;;;;;;6.62;71.74;101004.06;5030303;28;20213;-70
2023/02/18 06:23:25;;;;;;;4.43;1.23;;;;;;;6.61;71.76;101000.53;5029710;28;20208;-69
2023/02/18 06:25:57;;;;;;;8.10;1.65;;;;;;;6.58;72.14;101000.88;5044257;28;20194;-69
2023/02/18 06:28:27;;;;;;;5.88;1.30;;;;;;;6.60;71.76;101000.69;5038357;28;20258;-69
2023/02/18 06:30:56;;;;;;;6.32;1.60;;;;;;;6.67;72.10;100999.84;5032849;28;20581;-69
2023/02/18 06:33:26;;;;;;;9.80;2.22;;;;;;;6.70;71.78;101001.31;5027451;28;20263;-69
2023/02/18 06:35:58;;;;;;;5.32;1.75;;;;;;;6.74;71.52;100999.97;5023009;28;20202;-69
2023/02/18 06:38:28;;;;;;;3.35;1.20;;;;;;;6.80;70.87;101001.97;5022280;28;20247;-70
2023/02/18 06:41:00;;;;;;;10.02;1.63;;;;;;;6.73;71.18;101001.00;5011873;28;20189;-70
2023/02/18 06:43:30;;;;;;;6.55;1.35;;;;;;;6.77;71.24;100999.63;5016057;28;20204;-69
2023/02/18 06:45:59;;;;;;;5.57;1.60;;;;;;;6.78;71.28;100994.06;5019409;28;20301;-68
2023/02/18 06:48:29;;;;;;;5.55;1.80;;;;;;;6.85;71.40;100996.91;5017526;28;20190;-70
2023/02/18 06:51:00;;;;;;;10.20;2.10;;;;;;;6.79;71.19;100995.75;5034939;28;20685;-69
2023/02/18 06:53:29;;;;;;;3.63;1.20;;;;;;;6.95;71.31;100989.44;5045791;28;20200;-70
2023/02/18 06:56:01;;;;;;;4.88;1.02;;;;;;;6.95;71.30;100989.44;5020120;28;20307;-69
2023/02/18 06:58:30;;;;;;;3.45;1.40;;;;;;;6.92;71.00;100987.94;5003994;28;20213;-70
2023/02/18 07:01:01;;;;;;;6.13;3.90;;;;;;;6.99;71.02;100996.16;5027788;28;20202;-70
2023/02/18 07:03:31;;;;;;;4.50;1.52;;;;;;;7.01;71.13;100996.81;5005305;28;20221;-69
2023/02/18 07:06:01;;;;;;;6.50;1.98;;;;;;;7.01;70.84;100988.75;5021725;28;20213;-72
2023/02/18 07:08:31;;;;;;;4.60;1.45;;;;;;;7.08;70.77;100994.25;5010458;28;20337;-69
2023/02/18 07:11:03;;;;;;;5.78;1.63;;;;;;;7.13;70.59;100976.56;5017749;28;20624;-72
2023/02/18 07:13:33;;;;;;;9.65;1.80;;;;;;;7.23;70.28;100971.78;5010222;28;20773;-69
2023/02/18 07:16:03;;;;;;;9.18;2.05;;;;;;;7.14;70.16;100978.25;5019357;28;20653;-70
2023/02/18 07:18:34;;;;;;;3.42;1.50;;;;;;;7.24;70.12;100988.78;5026877;28;20291;-68
2023/02/18 07:21:04;;;;;;;6.20;1.40;;;;;;;7.26;69.58;100979.50;5057854;28;20605;-68
2023/02/18 07:23:34;;;;;;;8.18;1.58;;;;;;;7.27;69.68;100967.72;5012804;28;20256;-69
2023/02/18 07:26:08;;;;;;;7.95;2.05;;;;;;;7.22;69.87;100967.41;5035824;28;20196;-69
2023/02/18 07:28:38;;;;;;;3.00;1.35;;;;;;;7.28;70.01;100964.00;5019989;28;20188;-69
2023/02/18 07:31:09;;;;;;;10.20;1.88;;;;;;;7.34;69.94;100971.38;5018783;28;20216;-67
2023/02/18 07:33:39;;;;;;;3.50;1.20;;;;;;;7.33;70.07;100975.06;5044476;28;20204;-69
2023/02/18 07:36:12;;;;;;;4.25;1.13;;;;;;;7.36;70.11;100971.19;5030620;28;20324;-66
2023/02/18 07:38:42;;;;;;;3.67;1.13;;;;;;;7.38;69.81;100970.00;5022376;28;20197;-68
2023/02/18 07:41:19;;;;;;;3.85;1.25;;;;;;;7.43;70.83;100962.22;5020263;28;20185;-68
2023/02/18 07:43:49;;;;;;;10.27;1.98;;;;;;;7.45;70.57;100958.50;5027740;28;20182;-72
2023/02/18 07:46:19;;;;;;;3.70;1.45;;;;;;;7.43;71.10;100946.06;5009952;28;20276;-69
2023/02/18 07:48:49;;;;;;;4.45;1.48;;;;;;;7.53;72.00;100940.44;5015004;28;20234;-70
2023/02/18 07:51:19;;;;;;;6.43;1.42;;;;;;;7.57;71.59;100946.28;5010701;28;20575;-70
2023/02/18 07:53:49;;;;;;;5.20;1.20;;;;;;;7.67;71.80;100941.47;5006777;28;20217;-69
2023/02/18 07:56:20;;;;;;;6.18;1.80;;;;;;;7.65;72.19;100943.53;5019761;28;20224;-68
2023/02/18 07:58:50;;;;;;;5.18;1.30;;;;;;;7.58;72.64;100953.34;5014035;28;20212;-69
2023/02/18 08:01:20;;;;;;;2.95;1.30;;;;;;;7.53;73.14;100942.28;5023001;28;20291;-70
2023/02/18 08:03:50;;;;;;;7.53;1.40;;;;;;;7.48;74.76;100942.81;5007828;28;20198;-69
2023/02/18 08:06:25;;;;;;;5.18;1.27;;;;;;;7.56;75.00;100937.38;5017532;28;20247;-69
2023/02/18 08:08:55;;;;;;;8.95;1.55;;;;;;;7.58;75.88;100932.66;5006833;28;20256;-70
2023/02/18 08:11:26;;;;;;;5.88;3.55;;;;;;;7.63;76.19;100921.31;5029873;28;20181;-69
2023/02/18 08:13:56;;;;;;;6.80;2.85;;;;;;;7.48;77.63;100923.13;5021271;28;20201;-70
2023/02/18 08:16:26;;;;;;;6.78;2.20;;;;;;;7.43;77.64;100915.59;5032550;28;20295;-70
2023/02/18 08:18:57;;;;;;;8.07;1.60;;;;;;;7.38;77.21;100916.16;5014344;28;20209;-69
2023/02/18 08:21:27;;;;;;;5.07;1.60;;;;;;;7.46;77.40;100909.00;5018451;28;20680;-71
2023/02/18 08:23:58;;;;;;;9.52;1.50;;;;;;;7.35;77.32;100904.91;5012765;28;20264;-71
2023/02/18 08:26:30;;;;;;;6.22;2.60;;;;;;;7.43;77.69;100902.97;5033207;28;20241;-67
2023/02/18 08:29:00;;;;;;;8.13;1.35;;;;;;;7.48;78.07;100891.66;5032449;28;20190;-68
2023/02/18 08:31:31;;;;;;;7.05;1.55;;;;;;;7.55;78.97;100891.78;5030688;28;20336;-69
2023/02/18 08:34:02;;;;;;;2.25;1.10;;;;;;;7.39;79.44;100893.59;5012914;28;20275;-70
2023/02/18 08:36:32;;;;;;;4.90;1.13;;;;;;;7.43;80.68;100886.81;5044588;28;20225;-70
2023/02/18 08:39:01;;;;;;;3.05;1.50;;;;;;;7.47;81.36;100891.84;5017868;28;20221;-71
2023/02/18 08:41:33;;;;;;;5.50;1.20;;;;;;;7.45;81.88;100881.28;5040857;28;20197;-68
2023/02/18 08:44:02;;;;;;;3.53;1.33;;;;;;;7.42;81.57;100884.31;5031328;28;20216;-70
2023/02/18 08:46:32;;;;;;;7.53;1.70;;;;;;;7.37;81.65;100878.63;5015750;28;20229;-70
2023/02/18 08:49:06;;;;;;;4.47;1.30;;;;;;;7.41;82.55;100888.00;5030811;28;20272;-69
2023/02/18 08:51:36;;;;;;;7.18;1.50;;;;;;;7.30;83.37;100893.84;5017591;28;20205;-71
2023/02/18 08:54:06;;;;;;;2.60;1.48;;;;;;;7.22;84.01;100889.34;5027654;28;20257;-69
2023/02/18 08:56:38;;;;;;;4.03;1.45;;;;;;;7.29;85.64;100879.56;5012114;28;20291;-71
2023/02/18 08:59:08;;;;;;;6.38;1.58;;;;;;;7.30;84.39;100877.69;5021909;28;20205;-71
2023/02/18 09:01:38;;;;;;;8.13;1.80;;;;;;;7.22;86.23;100872.38;5014004;28;20206;-69
2023/02/18 09:04:07;;;;;;;8.60;1.75;;;;;;;7.25;87.05;100872.84;5014479;28;20248;-69
2023/02/18 09:06:38;;;;;;;3.30;2.63;;;;;;;7.26;87.11;100874.50;5028600;28;20225;-69
2023/02/18 09:09:12;;;;;;;3.63;1.40;;;;;;;7.17;87.29;100867.53;5029520;28;20201;-70
2023/02/18 09:11:43;;;;;;;19.20;3.13;;;;;;;7.22;87.20;100859.75;5016461;28;20193;-69
2023/02/18 09:14:14;;;;;;;8.20;1.65;;;;;;;7.39;88.23;100853.22;5011657;28;20288;-68
2023/02/18 09:16:43;;;;;;;8.75;1.33;;;;;;;7.45;88.83;100856.19;5034992;28;20746;-70
2023/02/18 09:19:13;;;;;;;4.45;2.00;;;;;;;7.56;88.46;100844.97;5030220;28;20229;-70
2023/02/18 09:21:43;;;;;;;8.60;2.53;;;;;;;7.39;88.25;100836.22;5026545;28;20280;-69
2023/02/18 09:24:12;;;;;;;4.22;1.33;;;;;;;7.32;88.04;100840.66;5013915;28;20196;-71
2023/02/18 09:26:44;;;;;;;6.65;2.22;;;;;;;7.31;88.83;100844.38;5016735;28;20218;-71
2023/02/18 09:29:14;;;;;;;7.78;3.70;;;;;;;7.32;89.17;100835.25;5019224;28;20199;-69
2023/02/18 09:31:44;;;;;;;7.72;1.83;;;;;;;7.35;89.78;100841.16;5032947;28;20259;-70
2023/02/18 09:34:13;;;;;;;6.47;1.77;;;;;;;7.38;90.43;100826.47;5035464;28;20184;-69
2023/02/18 09:36:43;;;;;;;7.65;1.45;;;;;;;7.29;90.52;100823.03;5012521;28;20642;-68
2023/02/18 09:39:16;;;;;;;3.67;2.30;;;;;;;7.34;91.00;100823.31;5019002;28;20208;-70
2023/02/18 09:41:50;;;;;;;8.98;2.63;;;;;;;7.46;89.74;100809.38;5030241;28;20524;-71
2023/02/18 09:44:25;;;;;;;6.03;1.60;;;;;;;7.37;89.60;100796.00;5038906;28;20185;-69
2023/02/18 09:46:59;;;;;;;5.30;2.50;;;;;;;7.62;89.30;100787.69;5011831;28;20216;-71
2023/02/18 09:49:33;;;;;;;3.75;1.75;;;;;;;7.96;89.58;100787.09;5044680;28;20185;-68
2023/02/18 09:52:07;;;;;;;7.40;2.47;;;;;;;7.85;89.08;100770.38;5037874;28;20190;-70
2023/02/18 09:54:39;;;;;;;5.05;1.83;;;;;;;7.83;88.61;100760.84;5017232;28;20203;-69
2023/02/18 09:57:22;;;;;;;9.63;1.80;;;;;;;7.75;88.87;100761.75;5018448;28;20223;-71
2023/02/18 09:59:57;;;;;;;6.32;1.85;;;;;;;7.66;88.55;100770.13;5021393;28;20215;-70
2023/02/18 10:02:28;;;;;;;3.92;2.03;;;;;;;7.24;90.60;100758.13;5016950;28;20204;-71
2023/02/18 10:04:58;;;;;;;9.07;2.53;;;;;;;7.41;91.94;100748.84;5035114;28;20189;-69
2023/02/18 10:07:31;;;;;;;8.00;2.40;;;;;;;7.39;91.86;100748.22;5005130;28;20257;-72
2023/02/18 10:10:12;;;;;;;6.10;1.90;;;;;;;7.48;91.98;100748.13;5027869;28;20652;-70
2023/02/18 10:12:44;;;;;;;5.25;1.95;;;;;;;7.28;93.40;100743.28;5029423;28;20313;-70
2023/02/18 10:15:28;;;;;;;12.65;3.00;;;;;;;7.25;94.29;100743.66;5018786;28;20285;-69
2023/02/18 10:17:59;;;;;;;4.97;2.00;;;;;;;7.11;95.47;100731.03;5015847;28;20639;-73
2023/02/18 10:20:30;;;;;;;7.80;3.03;;;;;;;7.20;95.91;100729.94;5040814;28;20201;-70
2023/02/18 10:23:05;;;;;;;5.50;2.50;;;;;;;7.18;96.25;100718.50;5013209;28;20251;-71
2023/02/18 10:25:42;;;;;;;8.35;2.05;;;;;;;7.13;96.72;100704.75;5015419;28;20259;-71
2023/02/18 10:28:19;;;;;;;8.55;2.10;;;;;;;7.15;97.44;100691.13;5039280;28;20211;-70
2023/02/18 10:30:56;;;;;;;2.95;1.60;;;;;;;7.37;98.09;100685.63;5019334;28;20210;-69
2023/02/18 10:33:35;;;;;;;3.72;2.35;;;;;;;7.34;98.19;100672.56;5025240;28;20190;-69
2023/02/18 10:36:23;;;;;;;3.38;1.88;;;;;;;7.54;96.86;100662.06;5021619;28;20264;-68
2023/02/18 10:39:19;;;;;;;4.43;2.25;;;;;;;7.40;97.63;100644.91;5021359;28;20211;-72
2023/02/18 10:42:01;;;;;;;4.75;2.20;;;;;;;7.40;98.45;100634.13;5021242;28;20217;-72
2023/02/18 10:44:43;;;;;;;8.48;3.28;;;;;;;7.45;98.90;100627.34;5025430;28;20633;-70
2023/02/18 10:47:25;;;;;;;4.90;2.20;;;;;;;7.45;98.84;100619.28;5018125;28;20217;-70
2023/02/18 10:49:59;;;;;;;7.78;2.30;;;;;;;7.34;98.92;100605.28;5019170;28;20574;-71
2023/02/18 10:52:33;;;;;;;9.50;2.28;;;;;;;7.33;99.15;100600.91;5025484;28;20733;-70
2023/02/18 10:55:05;;;;;;;7.20;2.10;;;;;;;7.33;99.59;100595.53;5013538;28;20621;-69
2023/02/18 10:57:35;;;;;;;7.63;2.25;;;;;;;7.20;100.00;100600.75;5038623;28;20244;-72
2023/02/18 11:00:19;;;;;;;5.25;2.45;;;;;;;7.25;100.00;100590.25;5023864;28;20209;-72
2023/02/18 11:03:04;;;;;;;5.43;2.67;;;;;;;7.46;100.00;100575.16;5019612;28;20285;-70
2023/02/18 11:05:37;;;;;;;9.77;3.72;;;;;;;7.46;100.00;100577.84;5023937;28;20216;-70
2023/02/18 11:08:11;;;;;;;4.70;3.55;;;;;;;7.28;100.00;100554.88;5017480;28;20217;-70
2023/02/18 11:10:43;;;;;;;10.70;3.00;;;;;;;7.46;100.00;100538.28;5022185;28;20200;-68
2023/02/18 11:13:17;;;;;;;7.78;2.80;;;;;;;7.47;100.00;100534.59;5036125;28;22179;-71
2023/02/18 11:15:58;;;;;;;7.15;3.03;;;;;;;7.59;100.00;100524.16;5044209;28;20197;-69
2023/02/18 11:18:38;;;;;;;6.60;2.05;;;;;;;7.72;100.00;100516.19;5014815;28;20190;-70
2023/02/18 11:21:29;;;;;;;3.85;2.08;;;;;;;7.63;100.00;100506.59;5024909;28;20204;-71
2023/02/18 11:24:08;;;;;;;8.30;4.13;;;;;;;7.75;100.00;100502.34;5012747;28;20193;-70
2023/02/18 11:26:40;;;;;;;4.85;3.35;;;;;;;7.78;100.00;100488.50;5030687;28;20217;-70
2023/02/18 11:29:19;;;;;;;3.38;2.15;;;;;;;7.57;100.00;100483.94;5030097;28;20686;-71
2023/02/18 11:31:53;;;;;;;4.93;1.80;;;;;;;7.42;100.00;100467.84;5033660;28;20251;-71
2023/02/18 11:34:27;;;;;;;7.88;2.95;;;;;;;7.36;100.00;100465.09;5010832;28;20192;-71
2023/02/18 11:37:08;;;;;;;3.38;2.10;;;;;;;7.56;100.00;100467.97;5032903;28;20301;-71
2023/02/18 11:39:43;;;;;;;5.65;2.75;;;;;;;7.49;100.00;100461.72;5011453;28;20209;-71
2023/02/18 11:42:16;;;;;;;5.93;2.70;;;;;;;7.31;100.00;100452.19;5017434;28;20216;-73
2023/02/18 11:45:06;;;;;;;7.43;4.15;;;;;;;7.55;100.00;100450.19;5023984;28;20288;-70
2023/02/18 11:47:40;;;;;;;3.92;2.40;;;;;;;7.49;100.00;100443.69;5017364;28;20782;-71
2023/02/18 11:50:23;;;;;;;2.40;1.80;;;;;;;7.50;100.00;100426.53;5024645;28;20609;-70
2023/02/18 11:52:58;;;;;;;4.75;2.25;;;;;;;7.44;100.00;100408.44;5020947;28;20189;-71
2023/02/18 11:55:31;;;;;;;2.78;2.35;;;;;;;7.40;100.00;100421.47;5032989;28;20193;-71
2023/02/18 11:58:04;;;;;;;4.68;2.35;;;;;;;7.58;100.00;100410.22;5020367;28;20632;-69
2023/02/18 12:00:41;;;;;;;4.13;2.45;;;;;;;7.75;100.00;100405.38;5046573;28;20206;-71